createdAt,value
2022-12-18T00:01:27.537Z,3.65
2022-12-18T00:03:56.744Z,3.58
2022-12-18T00:06:24.976Z,3.55
2022-12-18T00:08:52.043Z,3.25
2022-12-18T00:11:21.512Z,3.10
2022-12-18T00:13:50.307Z,3.33
2022-12-18T00:16:22.399Z,4.10
2022-12-18T00:18:50.717Z,3.63
2022-12-18T00:21:17.797Z,3.28
2022-12-18T00:23:45.974Z,3.33
2022-12-18T00:26:19.268Z,3.35
2022-12-18T00:28:46.851Z,3.00
2022-12-18T00:31:16.256Z,3.35
2022-12-18T00:33:44.057Z,3.22
2022-12-18T00:36:19.712Z,3.17
2022-12-18T00:38:47.540Z,3.13
2022-12-18T00:41:36.651Z,3.17
2022-12-18T00:44:04.756Z,3.00
2022-12-18T00:46:31.817Z,2.85
2022-12-18T00:48:58.816Z,2.50
2022-12-18T00:51:26.307Z,2.95
2022-12-18T00:53:53.376Z,2.47
2022-12-18T00:56:24.078Z,2.50
2022-12-18T00:58:50.983Z,2.67
2022-12-18T01:01:18.474Z,2.80
2022-12-18T01:03:47.649Z,3.15
2022-12-18T01:06:17.262Z,3.05
2022-12-18T01:08:45.022Z,2.90
2022-12-18T01:11:18.708Z,3.50
2022-12-18T01:13:46.798Z,3.35
2022-12-18T01:16:15.553Z,2.92
2022-12-18T01:18:43.151Z,2.53
2022-12-18T01:21:12.574Z,3.33
2022-12-18T01:23:39.742Z,3.05
2022-12-18T01:26:12.459Z,2.60
2022-12-18T01:28:40.663Z,2.58
2022-12-18T01:31:26.177Z,2.50
2022-12-18T01:33:54.195Z,2.78
2022-12-18T01:36:27.076Z,2.78
2022-12-18T01:38:54.692Z,2.45
2022-12-18T01:41:25.100Z,3.00
2022-12-18T01:43:53.665Z,2.70
2022-12-18T01:46:23.428Z,2.58
2022-12-18T01:49:01.232Z,2.20
2022-12-18T01:51:31.517Z,2.65
2022-12-18T01:54:00.311Z,2.25
2022-12-18T01:56:27.451Z,2.83
2022-12-18T01:58:54.400Z,2.55
2022-12-18T02:01:24.178Z,2.13
2022-12-18T02:03:51.508Z,2.42
2022-12-18T02:06:22.408Z,2.35
2022-12-18T02:08:49.190Z,2.28
2022-12-18T02:11:28.390Z,2.80
2022-12-18T02:14:23.861Z,2.45
2022-12-18T02:17:12.565Z,2.72
2022-12-18T02:19:57.541Z,3.00
2022-12-18T02:22:43.073Z,2.60
2022-12-18T02:25:21.900Z,2.55
2022-12-18T02:27:52.128Z,2.40
2022-12-18T02:30:20.155Z,2.30
2022-12-18T02:32:51.776Z,2.47
2022-12-18T02:35:23.044Z,2.50
2022-12-18T02:37:50.538Z,2.20
2022-12-18T02:40:19.094Z,2.30
2022-12-18T02:42:45.880Z,2.25
2022-12-18T02:45:13.527Z,2.50
2022-12-18T02:47:42.996Z,2.30
2022-12-18T02:50:18.686Z,2.58
2022-12-18T02:52:46.588Z,2.40
2022-12-18T02:55:40.659Z,2.55
2022-12-18T02:58:26.858Z,1.92
2022-12-18T03:01:25.436Z,2.50
2022-12-18T03:03:58.619Z,2.38
2022-12-18T03:06:31.113Z,2.17
2022-12-18T03:09:03.390Z,2.40
2022-12-18T03:11:53.148Z,2.25
2022-12-18T03:14:23.967Z,2.58
2022-12-18T03:16:55.587Z,3.22
2022-12-18T03:19:25.908Z,2.28
2022-12-18T03:21:56.105Z,2.33
2022-12-18T03:24:25.497Z,2.63
2022-12-18T03:26:55.819Z,2.50
2022-12-18T03:29:43.485Z,2.40
2022-12-18T03:32:18.475Z,2.35
2022-12-18T03:34:49.136Z,2.17
2022-12-18T03:37:16.264Z,2.22
2022-12-18T03:39:43.125Z,2.00
2022-12-18T03:42:30.829Z,2.30
2022-12-18T03:45:04.029Z,2.45
2022-12-18T03:47:50.636Z,2.33
2022-12-18T03:50:28.810Z,2.05
2022-12-18T03:53:00.411Z,2.42
2022-12-18T03:55:32.128Z,3.08
2022-12-18T03:57:59.705Z,2.65
2022-12-18T04:00:26.804Z,2.33
2022-12-18T04:02:56.854Z,2.65
2022-12-18T04:05:26.681Z,2.78
2022-12-18T04:07:54.980Z,2.60
2022-12-18T04:10:21.907Z,2.72
2022-12-18T04:12:49.353Z,2.47
2022-12-18T04:15:16.300Z,2.65
2022-12-18T04:17:49.719Z,2.83
2022-12-18T04:20:16.776Z,2.80
2022-12-18T04:22:43.784Z,3.17
2022-12-18T04:25:13.952Z,3.00
2022-12-18T04:27:40.804Z,3.20
2022-12-18T04:30:09.211Z,2.40
2022-12-18T04:32:36.116Z,2.80
2022-12-18T04:35:05.219Z,2.60
2022-12-18T04:37:32.131Z,2.55
2022-12-18T04:39:58.940Z,2.22
2022-12-18T04:42:25.716Z,2.53
2022-12-18T04:44:52.554Z,2.10
2022-12-18T04:47:19.411Z,2.30
2022-12-18T04:49:46.371Z,2.55
2022-12-18T04:52:13.239Z,2.20
2022-12-18T04:54:40.105Z,2.40
2022-12-18T04:57:06.961Z,2.35
2022-12-18T04:59:33.749Z,2.28
2022-12-18T05:02:00.634Z,2.90
2022-12-18T05:04:27.563Z,2.45
2022-12-18T05:06:54.377Z,2.33
2022-12-18T05:09:21.212Z,2.28
2022-12-18T05:11:48.083Z,2.30
2022-12-18T05:14:14.963Z,2.70
2022-12-18T05:16:41.802Z,2.33
2022-12-18T05:19:08.644Z,2.30
2022-12-18T05:21:35.484Z,2.38
2022-12-18T05:24:02.497Z,2.55
2022-12-18T05:26:29.330Z,2.53
2022-12-18T05:28:57.489Z,2.17
2022-12-18T05:31:24.485Z,2.58
2022-12-18T05:33:51.323Z,2.42
2022-12-18T05:36:18.312Z,2.47
2022-12-18T05:38:45.162Z,2.40
2022-12-18T05:41:12.246Z,2.55
2022-12-18T05:43:40.768Z,2.50
2022-12-18T05:46:11.216Z,2.80
2022-12-18T05:48:38.040Z,2.90
2022-12-18T05:51:16.220Z,3.05
2022-12-18T05:53:43.595Z,3.00
2022-12-18T05:56:13.475Z,3.10
2022-12-18T05:58:40.435Z,3.30
2022-12-18T06:01:16.936Z,3.78
2022-12-18T06:03:44.337Z,2.97
2022-12-18T06:06:26.093Z,3.03
2022-12-18T06:08:53.834Z,3.53
2022-12-18T06:11:23.856Z,3.13
2022-12-18T06:13:57.901Z,3.13
2022-12-18T06:16:25.733Z,2.78
2022-12-18T06:18:52.568Z,2.90
2022-12-18T06:21:19.656Z,3.10
2022-12-18T06:23:46.522Z,3.10
2022-12-18T06:26:14.553Z,3.17
2022-12-18T06:28:41.755Z,3.30
2022-12-18T06:31:09.913Z,3.10
2022-12-18T06:33:37.355Z,3.42
2022-12-18T06:36:10.450Z,3.25
2022-12-18T06:38:39.724Z,2.88
2022-12-18T06:41:12.501Z,2.88
2022-12-18T06:43:40.088Z,2.75
2022-12-18T06:46:08.062Z,2.72
2022-12-18T06:48:35.023Z,2.72
2022-12-18T06:51:02.464Z,2.90
2022-12-18T06:53:29.748Z,2.35
2022-12-18T06:56:09.429Z,2.50
2022-12-18T06:58:37.032Z,2.60
2022-12-18T07:01:06.244Z,2.50
2022-12-18T07:03:33.288Z,2.28
2022-12-18T07:06:00.377Z,2.58
2022-12-18T07:08:27.544Z,2.40
2022-12-18T07:10:56.409Z,2.35
2022-12-18T07:13:23.800Z,2.10
2022-12-18T07:15:50.912Z,2.22
2022-12-18T07:18:17.757Z,2.00
2022-12-18T07:20:45.205Z,2.42
2022-12-18T07:23:12.874Z,2.10
2022-12-18T07:25:40.527Z,2.25
2022-12-18T07:28:08.219Z,1.90
2022-12-18T07:30:39.382Z,1.95
2022-12-18T07:33:06.177Z,2.20
2022-12-18T07:35:35.027Z,1.80
2022-12-18T07:38:04.853Z,1.80
2022-12-18T07:40:31.684Z,2.25
2022-12-18T07:42:58.649Z,1.65
2022-12-18T07:45:25.546Z,2.10
2022-12-18T07:47:52.433Z,2.10
2022-12-18T07:50:19.292Z,2.00
2022-12-18T07:52:46.168Z,2.00
2022-12-18T07:55:12.988Z,1.90
2022-12-18T07:57:50.708Z,1.90
2022-12-18T08:00:18.496Z,1.80
2022-12-18T08:02:45.367Z,2.00
2022-12-18T08:05:12.289Z,1.83
2022-12-18T08:07:39.201Z,1.83
2022-12-18T08:10:07.362Z,2.10
2022-12-18T08:12:34.221Z,1.88
2022-12-18T08:15:01.261Z,2.30
2022-12-18T08:17:28.079Z,2.10
2022-12-18T08:19:54.887Z,1.85
2022-12-18T08:22:21.744Z,1.90
2022-12-18T08:24:48.695Z,2.15
2022-12-18T08:27:30.957Z,2.28
2022-12-18T08:29:58.671Z,2.00
2022-12-18T08:32:27.141Z,2.00
2022-12-18T08:34:53.964Z,2.30
2022-12-18T08:37:20.869Z,2.17
2022-12-18T08:39:47.736Z,2.10
2022-12-18T08:42:33.383Z,2.50
2022-12-18T08:45:00.265Z,2.33
2022-12-18T08:47:27.147Z,2.00
2022-12-18T08:49:54.078Z,1.77
2022-12-18T08:52:20.976Z,1.80
2022-12-18T08:54:47.818Z,2.00
2022-12-18T08:57:14.618Z,2.15
2022-12-18T08:59:41.432Z,1.77
2022-12-18T09:02:11.747Z,1.80
2022-12-18T09:04:38.926Z,2.30
2022-12-18T09:07:05.817Z,1.80
2022-12-18T09:09:32.683Z,1.83
2022-12-18T09:11:59.627Z,1.63
2022-12-18T09:14:26.502Z,1.77
2022-12-18T09:16:53.374Z,1.48
2022-12-18T09:19:20.222Z,1.58
2022-12-18T09:21:48.452Z,1.70
2022-12-18T09:24:16.459Z,1.83
2022-12-18T09:26:45.236Z,1.50
2022-12-18T09:29:15.575Z,1.75
2022-12-18T09:31:43.400Z,1.77
2022-12-18T09:34:10.272Z,2.03
2022-12-18T09:36:37.163Z,1.90
2022-12-18T09:39:08.126Z,2.20
2022-12-18T09:41:48.372Z,2.00
2022-12-18T09:44:24.442Z,2.25
2022-12-18T09:47:11.593Z,1.83
2022-12-18T09:49:46.188Z,1.60
2022-12-18T09:52:22.598Z,2.38
2022-12-18T09:55:11.919Z,1.80
2022-12-18T09:57:45.992Z,1.90
2022-12-18T10:00:23.922Z,1.45
2022-12-18T10:02:54.351Z,1.70
2022-12-18T10:05:46.777Z,1.67
2022-12-18T10:08:33.782Z,1.60
2022-12-18T10:11:27.985Z,1.40
2022-12-18T10:14:00.826Z,1.60
2022-12-18T10:16:47.463Z,1.70
2022-12-18T10:19:33.097Z,2.00
2022-12-18T10:22:18.729Z,1.60
2022-12-18T10:25:00.444Z,1.67
2022-12-18T10:27:28.322Z,1.70
2022-12-18T10:29:55.629Z,2.00
2022-12-18T10:32:28.539Z,1.85
2022-12-18T10:35:00.407Z,1.50
2022-12-18T10:37:30.052Z,1.90
2022-12-18T10:40:21.559Z,1.90
2022-12-18T10:43:12.412Z,2.03
2022-12-18T10:45:39.482Z,2.05
2022-12-18T10:48:19.207Z,1.80
2022-12-18T10:53:38.357Z,1.92
2022-12-18T10:56:07.302Z,1.70
2022-12-18T10:58:39.766Z,1.85
2022-12-18T11:01:18.599Z,1.50
2022-12-18T11:03:51.468Z,1.73
2022-12-18T11:06:22.838Z,1.77
2022-12-18T11:09:19.027Z,1.90
2022-12-18T11:12:03.498Z,1.90
2022-12-18T11:14:39.903Z,1.83
2022-12-18T11:17:25.750Z,1.58
2022-12-18T11:20:01.323Z,1.58
2022-12-18T11:22:31.389Z,1.73
2022-12-18T11:28:00.423Z,1.90
2022-12-18T11:30:27.342Z,1.95
2022-12-18T11:33:05.000Z,2.00
2022-12-18T11:35:50.729Z,1.65
2022-12-18T11:38:29.960Z,1.65
2022-12-18T11:41:44.669Z,2.13
2022-12-18T11:44:15.904Z,1.85
2022-12-18T11:47:10.560Z,1.95
2022-12-18T11:49:37.754Z,1.88
2022-12-18T11:52:16.688Z,2.10
2022-12-18T11:54:43.603Z,1.88
2022-12-18T11:57:29.154Z,2.00
2022-12-18T12:00:25.942Z,2.63
2022-12-18T12:02:58.819Z,2.28
2022-12-18T12:05:59.421Z,2.15
2022-12-18T12:09:01.822Z,1.80
2022-12-18T12:11:58.868Z,1.85
2022-12-18T12:14:43.518Z,1.75
2022-12-18T12:17:22.484Z,1.80
2022-12-18T12:20:00.222Z,1.58
2022-12-18T12:22:34.992Z,1.48
2022-12-18T12:25:34.340Z,1.88
2022-12-18T12:28:45.323Z,2.05
2022-12-18T12:31:36.991Z,1.40
2022-12-18T12:34:27.658Z,1.58
2022-12-18T12:37:19.570Z,1.80
2022-12-18T12:39:48.868Z,1.63
2022-12-18T12:42:46.760Z,1.65
2022-12-18T12:45:21.408Z,2.20
2022-12-18T12:47:50.681Z,2.15
2022-12-18T12:50:21.173Z,2.47
2022-12-18T12:52:54.601Z,2.55
2022-12-18T12:55:24.959Z,2.00
2022-12-18T12:58:11.067Z,1.98
2022-12-18T13:00:52.278Z,2.17
2022-12-18T13:04:04.522Z,1.70
2022-12-18T13:06:44.718Z,1.98
2022-12-18T13:09:12.169Z,2.00
2022-12-18T13:12:07.179Z,2.13
2022-12-18T13:14:40.556Z,2.20
2022-12-18T13:17:28.699Z,2.13
2022-12-18T13:20:13.722Z,2.15
2022-12-18T13:22:46.977Z,1.75
2022-12-18T13:25:42.960Z,2.30
2022-12-18T13:28:15.512Z,2.70
2022-12-18T13:30:57.810Z,2.40
2022-12-18T13:33:51.036Z,2.10
2022-12-18T13:36:32.856Z,1.85
2022-12-18T13:39:28.618Z,2.08
2022-12-18T13:42:05.860Z,2.10
2022-12-18T13:44:41.844Z,2.60
2022-12-18T13:47:35.615Z,2.25
2022-12-18T13:50:11.737Z,2.25
2022-12-18T13:52:40.914Z,2.28
2022-12-18T13:55:18.974Z,2.28
2022-12-18T13:57:46.298Z,2.30
2022-12-18T14:00:23.425Z,2.45
2022-12-18T14:02:51.735Z,2.40
2022-12-18T14:05:36.592Z,2.20
2022-12-18T14:08:14.984Z,2.40
2022-12-18T14:10:48.907Z,2.00
2022-12-18T14:13:29.211Z,2.08
2022-12-18T14:15:57.761Z,2.15
2022-12-18T14:18:31.125Z,1.67
2022-12-18T14:21:02.752Z,2.05
2022-12-18T14:23:37.567Z,1.77
2022-12-18T14:26:24.242Z,2.25
2022-12-18T14:28:51.132Z,2.30
2022-12-18T14:31:23.244Z,2.40
2022-12-18T14:33:50.741Z,2.38
2022-12-18T14:36:20.015Z,2.30
2022-12-18T14:38:51.610Z,2.58
2022-12-18T14:41:20.010Z,2.35
2022-12-18T14:43:50.004Z,2.63
2022-12-18T14:46:30.959Z,2.50
2022-12-18T14:48:58.634Z,2.40
2022-12-18T14:51:28.022Z,2.40
2022-12-18T14:53:58.782Z,2.20
2022-12-18T14:56:38.580Z,2.70
2022-12-18T14:59:18.052Z,2.28
2022-12-18T15:01:57.538Z,2.05
2022-12-18T15:04:44.864Z,2.60
2022-12-18T15:07:11.764Z,2.00
2022-12-18T15:09:40.725Z,2.13
2022-12-18T15:12:26.430Z,2.38
2022-12-18T15:14:53.220Z,2.47
2022-12-18T15:17:25.676Z,2.15
2022-12-18T15:20:01.164Z,3.17
2022-12-18T15:22:37.992Z,2.25
2022-12-18T15:25:32.330Z,2.28
2022-12-18T15:27:59.294Z,2.28
2022-12-18T15:30:26.854Z,2.50
2022-12-18T15:33:14.075Z,2.70
2022-12-18T15:35:46.624Z,2.40
2022-12-18T15:38:13.940Z,2.80
2022-12-18T15:40:40.756Z,2.25
2022-12-18T15:43:28.915Z,2.63
2022-12-18T15:45:55.722Z,2.65
2022-12-18T15:48:23.845Z,2.28
2022-12-18T15:50:57.811Z,2.17
2022-12-18T15:56:10.593Z,2.78
2022-12-18T15:58:37.427Z,2.33
2022-12-18T16:01:04.361Z,2.58
2022-12-18T16:03:31.489Z,2.72
2022-12-18T16:06:01.243Z,2.70
2022-12-18T16:08:30.853Z,2.40
2022-12-18T16:10:58.937Z,2.85
2022-12-18T16:13:25.842Z,2.70
2022-12-18T16:15:52.870Z,2.55
2022-12-18T16:18:20.329Z,2.92
2022-12-18T16:20:47.271Z,2.83
2022-12-18T16:23:14.117Z,2.83
2022-12-18T16:25:41.002Z,3.00
2022-12-18T16:28:07.810Z,3.35
2022-12-18T16:30:38.315Z,3.42
2022-12-18T16:33:05.772Z,3.42
2022-12-18T16:35:34.922Z,2.90
2022-12-18T16:38:01.784Z,3.10
2022-12-18T16:40:28.710Z,3.13
2022-12-18T16:42:55.561Z,2.78
2022-12-18T16:45:22.372Z,3.05
2022-12-18T16:47:49.239Z,3.22
2022-12-18T16:50:16.292Z,3.03
2022-12-18T16:52:44.011Z,3.30
2022-12-18T16:55:11.046Z,2.80
2022-12-18T16:57:37.961Z,2.95
2022-12-18T17:00:06.281Z,2.90
2022-12-18T17:02:33.773Z,3.53
2022-12-18T17:05:01.245Z,3.00
2022-12-18T17:07:28.888Z,3.53
2022-12-18T17:09:56.055Z,3.13
2022-12-18T17:12:23.316Z,3.08
2022-12-18T17:14:50.546Z,3.03
2022-12-18T17:17:22.566Z,3.25
2022-12-18T17:19:51.374Z,3.10
2022-12-18T17:22:18.215Z,3.13
2022-12-18T17:24:46.146Z,3.08
2022-12-18T17:27:12.991Z,2.85
2022-12-18T17:29:46.539Z,2.90
2022-12-18T17:32:14.528Z,3.47
2022-12-18T17:34:41.467Z,3.47
2022-12-18T17:37:08.904Z,2.83
2022-12-18T17:39:35.867Z,3.20
2022-12-18T17:42:02.846Z,2.97
2022-12-18T17:44:29.892Z,3.20
2022-12-18T17:46:56.897Z,3.72
2022-12-18T17:49:23.880Z,3.10
2022-12-18T17:51:51.538Z,3.40
2022-12-18T17:54:18.476Z,3.03
2022-12-18T17:56:45.434Z,3.50
2022-12-18T17:59:12.571Z,3.50
2022-12-18T18:01:44.600Z,3.50
2022-12-18T18:04:12.544Z,3.28
2022-12-18T18:06:39.663Z,4.22
2022-12-18T18:09:09.969Z,4.47
2022-12-18T18:12:02.861Z,4.32
2022-12-18T18:14:30.422Z,4.88
2022-12-18T18:16:59.194Z,4.75
2022-12-18T18:19:32.955Z,4.25
2022-12-18T18:21:59.834Z,3.85
2022-12-18T18:24:27.166Z,4.30
2022-12-18T18:26:54.080Z,4.00
2022-12-18T18:29:24.008Z,4.00
2022-12-18T18:31:53.874Z,3.90
2022-12-18T18:34:23.693Z,3.58
2022-12-18T18:36:51.245Z,3.97
2022-12-18T18:39:18.239Z,3.97
2022-12-18T18:41:47.716Z,4.20
2022-12-18T18:44:15.071Z,3.95
2022-12-18T18:46:41.913Z,4.15
2022-12-18T18:49:09.570Z,3.92
2022-12-18T18:51:36.364Z,4.18
2022-12-18T18:54:03.343Z,4.10
2022-12-18T18:59:18.501Z,3.80
2022-12-18T19:01:45.701Z,4.43
2022-12-18T19:04:12.918Z,4.40
2022-12-18T19:06:40.148Z,4.30
2022-12-18T19:09:07.704Z,4.57
2022-12-18T19:11:53.158Z,4.20
2022-12-18T19:14:20.400Z,4.30
2022-12-18T19:16:47.332Z,3.90
2022-12-18T19:19:14.906Z,3.85
2022-12-18T19:21:41.933Z,4.57
2022-12-18T19:24:09.891Z,3.78
2022-12-18T19:26:37.836Z,4.32
2022-12-18T19:29:07.672Z,4.13
2022-12-18T19:31:36.728Z,4.40
2022-12-18T19:34:06.865Z,5.30
2022-12-18T19:36:35.729Z,5.00
2022-12-18T19:39:09.081Z,5.10
2022-12-18T19:41:35.868Z,5.35
2022-12-18T19:44:07.570Z,5.80
2022-12-18T19:46:36.118Z,5.35
2022-12-18T19:49:06.417Z,5.38
2022-12-18T19:51:33.326Z,5.38
2022-12-18T19:54:02.106Z,5.18
2022-12-18T19:56:32.403Z,5.40
2022-12-18T19:58:59.621Z,5.10
2022-12-18T20:01:28.174Z,5.07
2022-12-18T20:03:56.042Z,5.03
2022-12-18T20:06:33.859Z,5.10
2022-12-18T20:09:04.149Z,5.00
2022-12-18T20:11:32.121Z,5.20
2022-12-18T20:14:02.576Z,5.28
2022-12-18T20:16:30.278Z,5.00
2022-12-18T20:18:58.880Z,5.43
2022-12-18T20:21:26.785Z,5.22
2022-12-18T20:23:55.744Z,5.10
2022-12-18T20:26:24.006Z,5.13
2022-12-18T20:28:50.935Z,5.28
2022-12-18T20:31:18.899Z,4.68
2022-12-18T20:33:46.321Z,5.43
2022-12-18T20:36:19.153Z,5.30
2022-12-18T20:38:50.052Z,4.60
2022-12-18T20:41:19.729Z,5.50
2022-12-18T20:43:46.788Z,5.93
2022-12-18T20:46:15.383Z,5.55
2022-12-18T20:48:43.416Z,5.30
2022-12-18T20:51:14.080Z,5.65
2022-12-18T20:53:41.532Z,5.07
2022-12-18T20:56:21.044Z,5.22
2022-12-18T20:58:49.423Z,5.00
2022-12-18T21:01:18.816Z,5.57
2022-12-18T21:03:47.135Z,5.63
2022-12-18T21:06:15.592Z,4.95
2022-12-18T21:08:42.902Z,5.75
2022-12-18T21:11:32.428Z,5.90
2022-12-18T21:14:00.019Z,5.60
2022-12-18T21:16:27.145Z,5.93
2022-12-18T21:18:54.515Z,5.90
2022-12-18T21:21:26.516Z,5.57
2022-12-18T21:23:54.106Z,5.90
2022-12-18T21:26:24.184Z,6.40
2022-12-18T21:28:59.857Z,6.28
2022-12-18T21:31:32.096Z,6.30
2022-12-18T21:34:01.995Z,5.95
2022-12-18T21:36:30.111Z,5.50
2022-12-18T21:38:58.419Z,6.10
2022-12-18T21:41:44.912Z,5.38
2022-12-18T21:44:16.995Z,5.40
2022-12-18T21:46:50.155Z,5.38
2022-12-18T21:49:22.394Z,5.20
2022-12-18T21:51:51.194Z,5.07
2022-12-18T21:54:19.127Z,5.88
2022-12-18T21:56:52.057Z,5.90
2022-12-18T21:59:24.917Z,5.97
2022-12-18T22:01:53.630Z,5.50
2022-12-18T22:04:21.403Z,6.00
2022-12-18T22:06:48.680Z,6.05
2022-12-18T22:09:18.224Z,6.20
2022-12-18T22:11:45.226Z,6.40
2022-12-18T22:14:12.485Z,6.63
2022-12-18T22:16:39.712Z,7.30
2022-12-18T22:19:07.226Z,7.22
2022-12-18T22:21:36.961Z,6.88
2022-12-18T22:24:06.596Z,7.13
2022-12-18T22:26:39.883Z,6.93
2022-12-18T22:29:26.653Z,7.03
2022-12-18T22:31:53.493Z,7.05
2022-12-18T22:34:23.015Z,7.32
2022-12-18T22:36:50.840Z,6.55
2022-12-18T22:39:20.504Z,6.90
2022-12-18T22:41:48.730Z,6.90
2022-12-18T22:44:17.535Z,7.35
2022-12-18T22:47:03.527Z,6.93
2022-12-18T22:49:35.389Z,6.70
2022-12-18T22:52:03.884Z,7.13
2022-12-18T22:54:30.879Z,6.72
2022-12-18T22:56:57.918Z,6.57
2022-12-18T22:59:25.073Z,6.72
2022-12-18T23:01:57.082Z,6.93
2022-12-18T23:04:36.072Z,7.15
2022-12-18T23:07:07.331Z,6.85
2022-12-18T23:09:34.729Z,6.70
2022-12-18T23:12:02.279Z,7.18
2022-12-18T23:14:33.271Z,7.13
2022-12-18T23:17:00.085Z,6.88
2022-12-18T23:19:28.214Z,6.78
2022-12-18T23:22:00.012Z,6.93
2022-12-18T23:24:30.852Z,7.05
2022-12-18T23:26:59.542Z,6.63
2022-12-18T23:29:26.402Z,6.40
2022-12-18T23:31:56.241Z,6.68
2022-12-18T23:34:23.109Z,7.25
2022-12-18T23:36:58.688Z,6.25
2022-12-18T23:39:29.850Z,6.35
2022-12-18T23:41:58.725Z,6.72
2022-12-18T23:44:28.458Z,6.97
2022-12-18T23:46:57.709Z,6.78
2022-12-18T23:49:25.065Z,6.20
2022-12-18T23:51:55.958Z,6.82
2022-12-18T23:54:31.708Z,6.57
2022-12-18T23:57:00.417Z,7.05
2022-12-18T23:59:34.540Z,6.82
